Time;durP1;ratioP1;P1;durP2;ratioP2;P2;SDS_P1;SDS_P2;PMS_P1;PMS_P2;Temp;Humidity;BMP_temperature;BMP_pressure;BME280_temperature;BME280_humidity;BME280_pressure;Samples;Min_cycle;Max_cycle;Signal;HPM_P1;HPM_P2
2021/12/06 20:52:27;;;;;;;45.88;30.33;;;;;;;;;;5143508;27;20420;-82
2021/12/06 20:54:53;;;;;;;45.78;30.10;;;;;;;;;;5143268;27;20474;-78
2021/12/06 20:57:19;;;;;;;;;;;;;;;;;;5125040;27;20054;-84
2021/12/06 20:59:45;;;;;;;;;;;;;;;;;;5147203;27;19983;-87
2021/12/06 21:02:11;;;;;;;;;;;;;;;;;;5145717;27;20442;-85
2021/12/06 21:04:38;;;;;;;;;;;;;;;;;;5143996;27;19942;-86
2021/12/06 21:07:04;;;;;;;;;;;;;;;;;;5144340;27;19919;-86
2021/12/06 21:09:31;;;;;;;;;;;;;;;;;;5145223;27;20362;-88
2021/12/06 21:12:07;;;;;;;;;;;;;;;;;;5174276;27;19966;-86
2021/12/06 21:17:02;;;;;;;;;;;;;;;;;;5145073;27;19923;-85
2021/12/06 21:19:31;;;;;;;;;;;;;;;;;;5144306;27;19927;-84
2021/12/06 21:21:57;;;;;;;;;;;;;;;;;;5172884;27;19927;-81
2021/12/06 21:24:23;;;;;;;;;;;;;;;;;;5171834;27;19938;-85
2021/12/06 21:26:49;;;;;;;;;;;;;;;;;;5144340;27;19919;-82
2021/12/06 21:29:15;;;;;;;;;;;;;;;;;;5142682;27;19923;-76
2021/12/06 21:31:41;;;;;;;;;;;;;;;;;;5144483;27;20157;-83
2021/12/06 21:34:07;;;;;;;;;;;;;;;;;;5126399;27;19932;-79
2021/12/06 21:36:33;;;;;;;;;;;;;;;;;;5143472;27;19965;-80
2021/12/06 21:38:59;;;;;;;;;;;;;;;;;;5136574;27;19930;-85
2021/12/06 21:41:24;;;;;;;;;;;;;;;;;;5126524;27;20042;-84
2021/12/06 21:43:51;;;;;;;32.75;20.83;;;;;;;;;;5141672;27;20117;-83
2021/12/06 21:46:18;;;;;;;36.10;20.80;;;;;;;;;;5111052;27;20046;-82
2021/12/06 21:48:44;;;;;;;38.58;21.63;;;;;;;;;;5130263;27;20053;-83
2021/12/06 21:51:10;;;;;;;37.13;21.58;;;;;;;;;;5126560;27;20123;-86
2021/12/06 21:53:36;;;;;;;32.38;21.17;;;;;;;;;;5140438;27;20365;-84
2021/12/06 21:56:03;;;;;;;37.88;22.48;;;;;;;;;;5124109;27;20055;-83
2021/12/06 21:58:30;;;;;;;36.97;21.70;;;;;;;;;;5138641;27;20145;-82
2021/12/06 22:00:58;;;;;;;37.25;21.75;;;;;;;;;;5140825;27;20039;-87
2021/12/06 22:03:37;;;;;;;35.38;21.08;;;;;;;;;;5109176;27;20058;-85
2021/12/06 22:06:04;;;;;;;35.47;21.17;;;;;;;;;;5124855;27;20147;-85
2021/12/06 22:08:31;;;;;;;35.85;21.27;;;;;;;;;;5125718;27;20093;-81
2021/12/06 22:10:58;;;;;;;31.23;20.27;;;;;;;;;;5110291;27;20120;-83
2021/12/06 22:13:24;;;;;;;36.30;21.65;;;;;;;;;;5123243;27;20043;-83
2021/12/06 22:15:50;;;;;;;38.50;21.42;;;;;;;;;;5127300;27;20096;-80
2021/12/06 22:18:17;;;;;;;38.80;21.80;;;;;;;;;;5127580;27;20126;-81
2021/12/06 22:20:43;;;;;;;33.58;19.98;;;;;;;;;;5124664;27;20042;-84
2021/12/06 22:23:09;;;;;;;37.25;22.05;;;;;;;;;;5132859;27;20043;-77
2021/12/06 22:25:35;;;;;;;33.53;21.40;;;;;;;;;;5129536;27;20130;-86
2021/12/06 22:28:02;;;;;;;34.60;21.40;;;;;;;;;;5125493;27;20051;-83
2021/12/06 22:30:28;;;;;;;37.08;21.23;;;;;;;;;;5121317;27;20085;-84
2021/12/06 22:32:56;;;;;;;34.03;20.77;;;;;;;;;;5125205;27;20039;-88
2021/12/06 22:35:24;;;;;;;32.35;20.75;;;;;;;;;;5106917;27;20047;-82
2021/12/06 22:37:50;;;;;;;38.05;22.80;;;;;;;;;;5108436;27;20050;-81
2021/12/06 22:40:18;;;;;;;33.88;21.05;;;;;;;;;;5104623;27;20112;-83
2021/12/06 22:42:44;;;;;;;35.15;21.98;;;;;;;;;;5121242;27;20042;-86
2021/12/06 22:45:11;;;;;;;39.92;22.38;;;;;;;;;;5134233;27;20093;-80
2021/12/06 22:47:37;;;;;;;35.53;22.35;;;;;;;;;;5123661;27;20126;-80
2021/12/06 22:50:05;;;;;;;38.10;23.08;;;;;;;;;;5129540;27;20059;-82
2021/12/06 22:52:31;;;;;;;35.38;23.27;;;;;;;;;;5127708;27;20197;-82
2021/12/06 22:54:57;;;;;;;37.13;22.17;;;;;;;;;;5130606;27;20047;-83
2021/12/06 22:57:23;;;;;;;40.33;23.27;;;;;;;;;;5128391;27;20067;-81
2021/12/06 22:59:50;;;;;;;36.63;23.48;;;;;;;;;;5106213;27;20426;-83
2021/12/06 23:02:16;;;;;;;40.10;24.27;;;;;;;;;;5132693;27;20590;-82
2021/12/06 23:04:42;;;;;;;40.58;24.35;;;;;;;;;;5128723;27;20172;-87
2021/12/06 23:07:09;;;;;;;37.33;24.25;;;;;;;;;;5125453;27;20039;-83
2021/12/06 23:09:35;;;;;;;39.10;24.30;;;;;;;;;;5126726;27;20569;-84
2021/12/06 23:12:01;;;;;;;39.78;22.73;;;;;;;;;;5130468;27;20039;-87
2021/12/06 23:14:34;;;;;;;38.10;24.33;;;;;;;;;;5127957;27;20047;-86
2021/12/06 23:17:00;;;;;;;43.60;26.35;;;;;;;;;;5090414;27;20520;-87
2021/12/06 23:19:27;;;;;;;43.55;26.73;;;;;;;;;;5129777;27;20093;-86
2021/12/06 23:21:53;;;;;;;44.72;25.08;;;;;;;;;;5120069;27;20075;-86
2021/12/06 23:24:19;;;;;;;42.28;24.75;;;;;;;;;;5120614;27;20057;-82
2021/12/06 23:26:47;;;;;;;43.97;25.67;;;;;;;;;;5150295;27;20039;-86
2021/12/06 23:29:14;;;;;;;47.97;25.58;;;;;;;;;;5120138;27;20486;-86
2021/12/06 23:31:42;;;;;;;43.22;25.73;;;;;;;;;;5121509;27;20465;-83
2021/12/06 23:34:09;;;;;;;46.00;27.05;;;;;;;;;;5126450;27;20082;-84
2021/12/06 23:36:36;;;;;;;42.08;25.17;;;;;;;;;;5122768;27;20050;-85
2021/12/06 23:46:14;;;;;;;39.35;24.00;;;;;;;;;;5087710;27;20047;-85
2021/12/06 23:47:25;;;;;;;46.17;24.17;;;;;;;;;;5116107;27;20081;-86
2021/12/06 23:49:51;;;;;;;45.10;26.20;;;;;;;;;;5126550;27;20164;-82
2021/12/06 23:52:18;;;;;;;44.50;26.60;;;;;;;;;;5140672;27;20074;-86
2021/12/06 23:54:44;;;;;;;46.47;26.50;;;;;;;;;;5123880;27;20118;-87
2021/12/06 23:57:11;;;;;;;44.38;25.90;;;;;;;;;;5121075;27;20070;-81
2021/12/06 23:59:37;;;;;;;48.63;26.55;;;;;;;;;;5125890;27;20045;-81
